Time;durP1;ratioP1;P1;durP2;ratioP2;P2;SDS_P1;SDS_P2;PMS_P1;PMS_P2;Temp;Humidity;BMP_temperature;BMP_pressure;BME280_temperature;BME280_humidity;BME280_pressure;Samples;Min_cycle;Max_cycle;Signal;HPM_P1;HPM_P2
2023/03/12 00:02:06;;;;;;;;;;;;;;;-1.94;81.75;95887.38;109125;1270;22592;-84
2023/03/12 00:04:38;;;;;;;;;;;;;;;-1.94;81.68;95885.46;109104;1274;23281;-83
2023/03/12 00:07:07;;;;;;;;;;;;;;;-1.94;81.74;95889.66;109109;1273;22771;-83
2023/03/12 00:09:38;;;;;;;;;;;;;;;-1.94;81.78;95895.85;109070;1274;22505;-83
2023/03/12 00:12:08;;;;;;;;;;;;;;;-1.94;81.71;95900.05;109111;1267;22514;-84
2023/03/12 00:14:39;;;;;;;;;;;;;;;-1.95;81.93;95892.75;109067;1274;22462;-83
2023/03/12 00:17:08;;;;;;;;;;;;;;;-1.96;81.92;95903.21;109076;1273;25479;-84
2023/03/12 00:19:37;;;;;;;;;;;;;;;-1.97;82.15;95907.14;109094;1273;23908;-83
2023/03/12 00:22:07;;;;;;;;;;;;;;;-1.97;81.93;95905.45;109031;1273;23749;-83
2023/03/12 00:24:36;;;;;;;;;;;;;;;-1.99;82.04;95912.67;109104;1273;22490;-83
2023/03/12 00:27:07;;;;;;;;;;;;;;;-2.02;82.17;95910.88;109066;1274;22429;-83
2023/03/12 00:29:37;;;;;;;;;;;;;;;-2.05;82.05;95910.90;109136;1274;22563;-83
2023/03/12 00:32:07;;;;;;;;;;;;;;;-2.06;81.81;95915.59;109051;1267;22505;-83
2023/03/12 00:34:36;;;;;;;;;;;;;;;-2.08;82.19;95924.80;109067;1274;25870;-83
2023/03/12 00:37:06;;;;;;;;;;;;;;;-2.08;82.21;95924.80;109091;1273;22509;-83
2023/03/12 00:39:36;;;;;;;;;;;;;;;-2.08;82.26;95929.36;109082;1270;25021;-82
2023/03/12 00:42:08;;;;;;;;;;;;;;;-2.11;82.38;95929.85;109093;1270;24262;-83
2023/03/12 00:44:37;;;;;;;;;;;;;;;-2.13;82.19;95920.16;109071;1275;26234;-83
2023/03/12 00:47:07;;;;;;;;;;;;;;;-2.16;82.21;95921.99;109074;1274;23758;-83
2023/03/12 00:49:36;;;;;;;;;;;;;;;-2.20;82.46;95928.55;109071;1267;22612;-83
2023/03/12 00:52:06;;;;;;;;;;;;;;;-2.23;82.34;95928.87;109068;1270;23745;-82
2023/03/12 00:54:35;;;;;;;;;;;;;;;-2.25;82.22;95931.67;109021;1274;55029;-82
2023/03/12 00:57:04;;;;;;;;;;;;;;;-2.26;82.39;95937.38;109087;1274;22547;-81
2023/03/12 00:59:34;;;;;;;;;;;;;;;-2.27;82.39;95936.11;109083;1273;22703;-81
2023/03/12 01:02:03;;;;;;;;;;;;;;;-2.28;82.35;95935.04;109101;1274;22510;-81
2023/03/12 01:04:32;;;;;;;;;;;;;;;-2.31;82.29;95933.91;109072;1274;26663;-81
2023/03/12 01:07:02;;;;;;;;;;;;;;;-2.33;82.19;95932.70;109046;1274;22561;-81
2023/03/12 01:09:31;;;;;;;;;;;;;;;-2.36;81.81;95944.31;109051;1273;22541;-81
2023/03/12 01:12:00;;;;;;;;;;;;;;;-2.38;81.46;95937.86;109054;1274;25210;-81
2023/03/12 01:14:30;;;;;;;;;;;;;;;-2.38;81.32;95942.27;109050;1263;23869;-81
2023/03/12 01:16:59;;;;;;;;;;;;;;;-2.40;81.49;95948.08;109072;1270;22507;-81
2023/03/12 01:19:29;;;;;;;;;;;;;;;-2.43;81.18;95940.44;109102;1268;22442;-81
2023/03/12 01:21:58;;;;;;;;;;;;;;;-2.46;80.94;95948.61;109064;1274;22514;-81
2023/03/12 01:24:28;;;;;;;;;;;;;;;-2.49;80.55;95950.13;109031;1273;22496;-81
2023/03/12 01:26:57;;;;;;;;;;;;;;;-2.52;80.45;95957.71;109058;1273;22608;-81
2023/03/12 01:29:27;;;;;;;;;;;;;;;-2.54;80.70;95961.93;109076;1267;24767;-81
2023/03/12 01:31:56;;;;;;;;;;;;;;;-2.57;80.47;95958.01;109101;1273;22510;-81
2023/03/12 01:34:26;;;;;;;;;;;;;;;-2.57;80.57;95956.45;109009;1274;25384;-81
2023/03/12 01:36:55;;;;;;;;;;;;;;;-2.58;80.60;95964.31;109054;1273;22442;-82
2023/03/12 01:39:25;;;;;;;;;;;;;;;-2.59;80.38;95960.14;109091;1274;22445;-81
2023/03/12 01:41:55;;;;;;;;;;;;;;;-2.60;80.61;95961.35;109111;1273;22542;-82
2023/03/12 01:44:24;;;;;;;;;;;;;;;-2.60;80.57;95957.23;109045;1274;22514;-82
2023/03/12 01:46:53;;;;;;;;;;;;;;;-2.62;80.84;95958.97;109071;1274;22525;-82
2023/03/12 01:49:24;;;;;;;;;;;;;;;-2.61;80.95;95954.25;109055;1274;22907;-82
2023/03/12 01:51:55;;;;;;;;;;;;;;;-2.62;80.75;95947.95;109092;1270;24186;-82
2023/03/12 01:54:26;;;;;;;;;;;;;;;-2.60;80.90;95949.69;109039;1274;55468;-82
2023/03/12 01:56:56;;;;;;;;;;;;;;;-2.60;80.74;95956.95;109089;1267;22489;-82
2023/03/12 01:59:29;;;;;;;;;;;;;;;-2.60;80.77;95961.03;109063;1267;22524;-82
2023/03/12 02:01:59;;;;;;;;;;;;;;;-2.62;80.86;95959.17;109094;1274;22925;-82
2023/03/12 02:04:29;;;;;;;;;;;;;;;-2.67;81.02;95959.33;109071;1273;22605;-82
2023/03/12 02:07:03;;;;;;;;;;;;;;;-2.69;80.92;95960.00;109124;1270;22481;-81
2023/03/12 02:09:32;;;;;;;;;;;;;;;-2.75;81.00;95960.73;109089;1267;22474;-82
2023/03/12 02:12:02;;;;;;;;;;;;;;;-2.78;81.22;95968.86;109049;1274;22568;-82
2023/03/12 02:14:31;;;;;;;;;;;;;;;-2.82;81.22;95970.40;109068;1273;25224;-82
2023/03/12 02:17:01;;;;;;;;;;;;;;;-2.87;81.49;95973.86;109090;1267;24246;-82
2023/03/12 02:19:36;;;;;;;;;;;;;;;-2.89;81.71;95979.34;109119;1273;23858;-82
2023/03/12 02:22:05;;;;;;;;;;;;;;;-2.89;81.92;95989.09;109081;1274;25179;-81
2023/03/12 02:24:38;;;;;;;;;;;;;;;-2.90;82.03;95993.00;109088;1267;22599;-82
2023/03/12 02:27:08;;;;;;;;;;;;;;;-2.88;82.21;95994.06;109047;1266;22503;-82
2023/03/12 02:29:41;;;;;;;;;;;;;;;-2.84;82.60;96003.01;109078;1274;22495;-82
2023/03/12 02:32:15;;;;;;;;;;;;;;;-2.83;82.24;95999.05;109086;1273;24247;-82
2023/03/12 02:34:46;;;;;;;;;;;;;;;-2.85;82.22;95997.06;109077;1273;22778;-82
2023/03/12 02:37:16;;;;;;;;;;;;;;;-2.85;82.01;95995.23;109127;1273;22489;-83
2023/03/12 02:39:50;;;;;;;;;;;;;;;-2.87;81.95;96000.11;109038;1274;25230;-82
2023/03/12 02:42:19;;;;;;;;;;;;;;;-2.90;81.99;96008.36;109107;1266;22450;-82
2023/03/12 02:44:48;;;;;;;;;;;;;;;-2.93;82.13;96010.50;109031;1273;23023;-82
2023/03/12 02:47:18;;;;;;;;;;;;;;;-2.91;82.28;96015.02;109080;1273;22488;-82
2023/03/12 02:49:47;;;;;;;;;;;;;;;-2.90;82.38;96013.34;109061;1266;22797;-82
2023/03/12 02:52:16;;;;;;;;;;;;;;;-2.89;82.50;96007.77;109103;1270;25418;-82
2023/03/12 02:54:46;;;;;;;;;;;;;;;-2.86;82.31;96014.67;109015;1267;22447;-82
2023/03/12 02:57:16;;;;;;;;;;;;;;;-2.85;82.03;96017.02;109083;1274;22501;-82
2023/03/12 02:59:46;;;;;;;;;;;;;;;-2.86;82.02;96018.65;109128;1273;22491;-82
2023/03/12 03:02:15;;;;;;;;;;;;;;;-2.86;82.21;96028.84;109124;1273;22489;-82
2023/03/12 03:04:45;;;;;;;;;;;;;;;-2.84;82.62;96024.80;109088;1273;22478;-82
2023/03/12 03:07:14;;;;;;;;;;;;;;;-2.82;83.09;96029.37;108984;1267;149589;-82
2023/03/12 03:09:44;;;;;;;;;;;;;;;-2.82;83.44;96036.27;109125;1266;22527;-82
2023/03/12 03:12:13;;;;;;;;;;;;;;;-2.81;83.58;96029.73;109098;1273;23754;-82
2023/03/12 03:14:42;;;;;;;;;;;;;;;-2.81;83.74;96029.27;109080;1274;22570;-82
2023/03/12 03:17:12;;;;;;;;;;;;;;;-2.81;84.03;96035.69;109051;1267;22491;-82
2023/03/12 03:19:41;;;;;;;;;;;;;;;-2.83;83.98;96030.38;109102;1267;25246;-82
2023/03/12 03:22:11;;;;;;;;;;;;;;;-2.85;83.96;96029.47;109084;1267;24289;-82
2023/03/12 03:24:40;;;;;;;;;;;;;;;-2.91;83.77;96025.20;109074;1271;22492;-82
2023/03/12 03:27:09;;;;;;;;;;;;;;;-2.91;83.68;96041.64;109065;1267;22463;-82
2023/03/12 03:29:39;;;;;;;;;;;;;;;-2.93;83.77;96050.31;109108;1267;22528;-82
2023/03/12 03:32:08;;;;;;;;;;;;;;;-2.94;83.70;96050.09;109092;1267;22676;-83
2023/03/12 03:34:38;;;;;;;;;;;;;;;-2.91;83.62;96051.66;109052;1267;25556;-82
2023/03/12 03:37:08;;;;;;;;;;;;;;;-2.88;83.73;96056.98;109098;1266;22594;-82
2023/03/12 03:39:37;;;;;;;;;;;;;;;-2.88;83.39;96057.54;109115;1273;22936;-82
2023/03/12 03:42:07;;;;;;;;;;;;;;;-2.92;83.26;96062.55;109070;1273;22538;-83
2023/03/12 03:44:36;;;;;;;;;;;;;;;-2.94;83.27;96067.55;109019;1270;50493;-83
2023/03/12 03:47:06;;;;;;;;;;;;;;;-3.00;83.26;96070.67;109103;1267;22547;-82
2023/03/12 03:49:35;;;;;;;;;;;;;;;-3.04;83.27;96071.90;109099;1273;24395;-82
2023/03/12 03:52:06;;;;;;;;;;;;;;;-3.09;83.41;96076.34;109086;1266;25392;-83
2023/03/12 03:54:35;;;;;;;;;;;;;;;-3.10;83.59;96078.92;109074;1273;47081;-82
2023/03/12 03:57:05;;;;;;;;;;;;;;;-3.13;83.54;96080.69;109129;1267;22436;-82
2023/03/12 03:59:34;;;;;;;;;;;;;;;-3.12;83.99;96075.58;109082;1267;22491;-82
2023/03/12 04:02:04;;;;;;;;;;;;;;;-3.10;84.19;96077.54;109095;1267;25869;-83
2023/03/12 04:04:33;;;;;;;;;;;;;;;-3.09;84.60;96083.09;109041;1273;44796;-82
2023/03/12 04:07:03;;;;;;;;;;;;;;;-3.08;84.75;96083.48;109063;1266;25388;-83
2023/03/12 04:09:32;;;;;;;;;;;;;;;-3.08;84.88;96083.64;109120;1273;22506;-82
2023/03/12 04:12:02;;;;;;;;;;;;;;;-3.08;84.91;96089.27;109110;1273;22478;-83
2023/03/12 04:14:31;;;;;;;;;;;;;;;-3.04;85.06;96092.33;108995;1273;73134;-83
2023/03/12 04:17:01;;;;;;;;;;;;;;;-3.00;84.78;96091.21;109122;1270;22501;-82
2023/03/12 04:19:30;;;;;;;;;;;;;;;-2.94;83.89;96093.45;109106;1269;24186;-82
2023/03/12 04:22:00;;;;;;;;;;;;;;;-2.90;83.32;96105.44;109115;1267;22510;-83
2023/03/12 04:24:29;;;;;;;;;;;;;;;-2.88;82.70;96110.85;109063;1273;31925;-82
2023/03/12 04:26:59;;;;;;;;;;;;;;;-2.85;82.37;96110.08;109062;1273;22489;-83
2023/03/12 04:29:28;;;;;;;;;;;;;;;-2.83;81.98;96116.16;109051;1273;22499;-82
2023/03/12 04:31:57;;;;;;;;;;;;;;;-2.84;81.89;96113.65;109076;1267;24198;-83
2023/03/12 04:34:27;;;;;;;;;;;;;;;-2.85;81.67;96109.98;109082;1273;51337;-82
2023/03/12 04:36:56;;;;;;;;;;;;;;;-2.85;81.39;96121.56;109144;1273;22534;-83
2023/03/12 04:39:26;;;;;;;;;;;;;;;-2.87;81.42;96117.66;109129;1273;22502;-82
2023/03/12 04:41:55;;;;;;;;;;;;;;;-2.87;81.37;96129.83;109103;1273;22514;-83
2023/03/12 04:44:25;;;;;;;;;;;;;;;-2.87;81.38;96131.08;109028;1273;47732;-83
2023/03/12 04:46:54;;;;;;;;;;;;;;;-2.88;81.18;96130.27;109073;1273;22520;-82
2023/03/12 04:49:24;;;;;;;;;;;;;;;-2.87;81.07;96131.91;109119;1270;22450;-83
2023/03/12 04:51:53;;;;;;;;;;;;;;;-2.87;80.81;96133.95;109084;1270;22492;-83
2023/03/12 04:54:23;;;;;;;;;;;;;;;-2.87;80.50;96134.34;109093;1273;25113;-83
2023/03/12 04:56:52;;;;;;;;;;;;;;;-2.86;80.22;96135.10;109096;1270;22504;-82
2023/03/12 04:59:21;;;;;;;;;;;;;;;-2.87;80.01;96130.87;109075;1267;22500;-82
2023/03/12 05:01:51;;;;;;;;;;;;;;;-2.88;79.89;96133.47;109119;1273;22540;-83
2023/03/12 05:04:20;;;;;;;;;;;;;;;-2.90;79.87;96138.27;109106;1273;25262;-82
2023/03/12 05:06:50;;;;;;;;;;;;;;;-2.95;79.55;96133.51;109090;1273;22469;-82
2023/03/12 05:09:19;;;;;;;;;;;;;;;-2.98;79.65;96131.15;109106;1273;22658;-82
2023/03/12 05:11:50;;;;;;;;;;;;;;;-3.02;79.43;96132.33;109114;1267;24881;-82
2023/03/12 05:14:20;;;;;;;;;;;;;;;-2.97;79.50;96131.47;109039;1267;23732;-83
2023/03/12 05:16:49;;;;;;;;;;;;;;;-2.94;79.55;96132.30;109065;1270;22471;-83
2023/03/12 05:19:19;;;;;;;;;;;;;;;-2.99;80.12;96127.80;109089;1269;22899;-82
2023/03/12 05:21:48;;;;;;;;;;;;;;;-3.02;80.50;96132.04;109103;1269;22509;-83
2023/03/12 05:24:18;;;;;;;;;;;;;;;-2.94;80.77;96136.40;109031;1271;70269;-83
2023/03/12 05:26:47;;;;;;;;;;;;;;;-2.91;80.55;96138.83;109066;1268;22725;-82
2023/03/12 05:29:17;;;;;;;;;;;;;;;-2.97;80.63;96138.41;109106;1268;22786;-83
2023/03/12 05:31:56;;;;;;;;;;;;;;;-2.97;80.71;96142.19;109108;1266;23497;-82
2023/03/12 05:34:27;;;;;;;;;;;;;;;-2.84;80.72;96145.98;109059;1273;22675;-82
2023/03/12 05:36:57;;;;;;;;;;;;;;;-2.47;80.32;96146.44;109082;1266;22497;-82
2023/03/12 05:39:27;;;;;;;;;;;;;;;-2.13;79.73;96148.70;109106;1274;22509;-82
2023/03/12 05:41:57;;;;;;;;;;;;;;;-1.67;78.56;96143.90;109116;1270;22604;-83
2023/03/12 05:44:26;;;;;;;;;;;;;;;-1.25;77.44;96150.98;107481;1274;2109614;-83
2023/03/12 05:46:56;;;;;;;;;;;;;;;-0.91;75.69;96150.23;109104;1274;22582;-83
2023/03/12 05:49:26;;;;;;;;;;;;;;;-0.64;74.26;96155.89;109076;1273;22496;-83
2023/03/12 05:51:55;;;;;;;;;;;;;;;-0.40;72.77;96160.29;109086;1273;22475;-82
2023/03/12 05:54:26;;;;;;;;;;;;;;;-0.21;71.33;96164.40;109060;1273;35114;-83
2023/03/12 05:56:56;;;;;;;;;;;;;;;0.05;71.06;96171.45;109095;1270;22495;-83
2023/03/12 05:59:26;;;;;;;;;;;;;;;0.32;69.94;96169.02;109066;1273;22499;-82
2023/03/12 06:01:56;;;;;;;;;;;;;;;0.45;68.40;96173.39;109129;1266;22547;-83
2023/03/12 06:04:26;;;;;;;;;;;;;;;0.60;67.76;96178.01;109017;1267;103007;-83
2023/03/12 06:06:55;;;;;;;;;;;;;;;0.70;66.98;96183.14;109074;1273;23801;-83
2023/03/12 06:09:25;;;;;;;;;;;;;;;0.91;66.26;96183.63;109087;1273;23840;-83
2023/03/12 06:11:55;;;;;;;;;;;;;;;1.07;64.90;96181.01;109078;1268;22605;-83
2023/03/12 06:14:25;;;;;;;;;;;;;;;1.20;64.68;96185.94;109049;1270;40116;-83
2023/03/12 06:16:55;;;;;;;;;;;;;;;1.79;65.12;96186.05;109073;1262;22502;-83
2023/03/12 06:19:25;;;;;;;;;;;;;;;2.17;62.95;96191.09;109064;1273;22529;-83
2023/03/12 06:21:54;;;;;;;;;;;;;;;2.06;61.34;96192.04;109103;1268;25212;-83
2023/03/12 06:24:24;;;;;;;;;;;;;;;2.49;61.77;96195.98;109078;1270;46378;-83
2023/03/12 06:26:54;;;;;;;;;;;;;;;2.90;61.27;96196.61;109099;1273;22523;-83
2023/03/12 06:29:23;;;;;;;;;;;;;;;3.56;60.78;96197.83;109089;1268;24944;-83
2023/03/12 06:31:54;;;;;;;;;;;;;;;4.00;59.58;96198.96;109070;1266;22436;-83
2023/03/12 06:34:24;;;;;;;;;;;;;;;4.36;58.42;96205.77;109064;1273;41932;-82
2023/03/12 06:36:54;;;;;;;;;;;;;;;4.57;56.83;96215.11;109070;1273;25250;-83
2023/03/12 06:39:23;;;;;;;;;;;;;;;4.81;56.40;96213.72;109100;1273;22439;-83
2023/03/12 06:41:53;;;;;;;;;;;;;;;4.99;55.21;96214.91;109095;1273;22527;-83
2023/03/12 06:44:24;;;;;;;;;;;;;;;4.70;53.27;96217.84;109017;1274;57211;-83
2023/03/12 06:46:54;;;;;;;;;;;;;;;5.01;53.61;96226.70;109109;1269;22503;-83
2023/03/12 06:49:23;;;;;;;;;;;;;;;5.11;52.52;96224.72;109113;1268;22479;-83
2023/03/12 06:51:54;;;;;;;;;;;;;;;4.72;51.72;96240.06;109050;1273;22491;-83
2023/03/12 06:54:24;;;;;;;;;;;;;;;3.79;51.75;96237.11;109083;1268;22598;-83
2023/03/12 06:56:54;;;;;;;;;;;;;;;3.26;52.72;96247.69;109078;1266;22518;-83
2023/03/12 06:59:23;;;;;;;;;;;;;;;3.33;53.17;96236.20;109054;1273;22690;-82
2023/03/12 07:01:53;;;;;;;;;;;;;;;4.06;53.75;96245.96;109119;1269;22495;-83
2023/03/12 07:04:23;;;;;;;;;;;;;;;4.54;51.63;96252.57;109015;1273;50652;-83
2023/03/12 07:06:52;;;;;;;;;;;;;;;4.67;51.62;96255.89;109083;1273;23014;-83
2023/03/12 07:09:22;;;;;;;;;;;;;;;5.22;51.75;96258.89;109110;1267;22488;-83
2023/03/12 07:11:52;;;;;;;;;;;;;;;6.12;51.93;96254.55;109080;1273;22592;-83
2023/03/12 07:14:21;;;;;;;;;;;;;;;7.14;51.36;96251.79;109019;1270;53409;-83
2023/03/12 07:16:51;;;;;;;;;;;;;;;7.58;48.16;96249.70;109047;1262;22534;-84
2023/03/12 07:19:21;;;;;;;;;;;;;;;7.28;46.48;96254.65;109110;1269;22498;-83
2023/03/12 07:21:51;;;;;;;;;;;;;;;7.32;47.72;96252.38;109098;1268;22560;-83
2023/03/12 07:24:20;;;;;;;;;;;;;;;7.05;44.90;96245.43;109052;1273;52622;-83
2023/03/12 07:26:50;;;;;;;;;;;;;;;7.06;46.42;96252.40;109092;1269;25399;-83
2023/03/12 07:29:19;;;;;;;;;;;;;;;6.91;43.96;96243.11;109123;1273;22501;-83
2023/03/12 07:31:49;;;;;;;;;;;;;;;6.32;44.52;96252.10;109103;1273;22530;-83
2023/03/12 07:34:19;;;;;;;;;;;;;;;6.33;46.12;96257.36;109015;1270;39843;-83
2023/03/12 07:36:48;;;;;;;;;;;;;;;6.67;45.14;96254.43;109118;1266;25259;-83
2023/03/12 07:39:19;;;;;;;;;;;;;;;7.12;44.54;96253.92;109074;1273;25392;-83
2023/03/12 07:41:49;;;;;;;;;;;;;;;7.24;44.67;96254.76;109093;1267;22533;-83
2023/03/12 07:44:19;;;;;;;;;;;;;;;8.00;44.94;96248.67;109021;1271;70578;-83
2023/03/12 07:46:49;;;;;;;;;;;;;;;8.53;44.97;96240.17;109101;1268;22514;-85
2023/03/12 07:49:19;;;;;;;;;;;;;;;9.20;43.11;96237.16;109060;1270;24176;-83
2023/03/12 07:51:48;;;;;;;;;;;;;;;9.37;42.66;96234.20;109083;1273;22457;-84
2023/03/12 07:54:18;;;;;;;;;;;;;;;9.42;41.14;96228.40;109078;1258;40089;-84
2023/03/12 07:56:48;;;;;;;;;;;;;;;9.22;41.80;96240.85;109055;1273;23714;-84
2023/03/12 07:59:21;;;;;;;;;;;;;;;9.16;39.93;96232.00;109071;1273;22492;-84
2023/03/12 08:01:50;;;;;;;;;;;;;;;7.84;40.38;96226.92;109122;1273;22601;-84
2023/03/12 08:04:20;;;;;;;;;;;;;;;7.69;41.73;96240.65;109040;1269;85228;-84
2023/03/12 08:06:50;;;;;;;;;;;;;;;7.77;40.99;96233.29;109096;1266;22514;-84
2023/03/12 08:09:19;;;;;;;;;;;;;;;7.55;41.71;96234.41;109116;1273;24199;-84
2023/03/12 08:11:49;;;;;;;;;;;;;;;7.52;41.46;96235.36;109107;1267;22523;-84
2023/03/12 08:14:19;;;;;;;;;;;;;;;6.97;41.48;96228.58;109039;1269;57862;-84
2023/03/12 08:16:49;;;;;;;;;;;;;;;6.17;42.28;96242.57;109056;1268;24171;-84
2023/03/12 08:19:19;;;;;;;;;;;;;;;6.15;43.69;96247.88;109073;1273;22580;-85
2023/03/12 08:21:49;;;;;;;;;;;;;;;6.44;43.20;96250.02;109107;1273;22512;-85
2023/03/12 08:24:20;;;;;;;;;;;;;;;6.57;43.81;96251.94;109050;1273;44519;-85
2023/03/12 08:26:50;;;;;;;;;;;;;;;7.03;43.31;96257.04;109129;1273;22523;-84
2023/03/12 08:29:20;;;;;;;;;;;;;;;7.52;43.36;96258.25;109113;1273;22469;-85
2023/03/12 08:31:50;;;;;;;;;;;;;;;7.58;41.58;96259.40;109108;1273;24203;-84
2023/03/12 08:34:20;;;;;;;;;;;;;;;7.38;42.72;96260.60;109061;1273;38438;-85
2023/03/12 08:36:50;;;;;;;;;;;;;;;7.62;42.28;96251.59;109119;1273;22849;-85
2023/03/12 08:39:20;;;;;;;;;;;;;;;7.70;42.93;96249.88;109103;1274;23680;-85
2023/03/12 08:41:54;;;;;;;;;;;;;;;8.07;42.16;96246.80;109112;1268;22517;-85
2023/03/12 08:44:25;;;;;;;;;;;;;;;7.66;41.85;96252.52;108988;1274;37291;-85
2023/03/12 08:46:55;;;;;;;;;;;;;;;7.91;42.60;96257.27;109093;1273;24343;-84
2023/03/12 08:49:25;;;;;;;;;;;;;;;7.52;41.44;96247.48;109087;1273;22426;-84
2023/03/12 08:51:55;;;;;;;;;;;;;;;6.93;42.47;96244.29;109100;1270;22499;-84
2023/03/12 08:54:25;;;;;;;;;;;;;;;6.43;43.38;96256.91;109059;1273;57984;-84
2023/03/12 08:56:55;;;;;;;;;;;;;;;6.27;44.52;96259.71;109125;1273;22499;-83
2023/03/12 08:59:25;;;;;;;;;;;;;;;6.18;44.79;96267.33;109071;1269;22609;-84
2023/03/12 09:01:55;;;;;;;;;;;;;;;6.33;45.53;96267.31;109088;1273;22499;-84
2023/03/12 09:04:25;;;;;;;;;;;;;;;6.18;44.99;96262.73;109074;1265;58753;-84
2023/03/12 09:06:55;;;;;;;;;;;;;;;5.37;45.39;96255.48;109074;1273;22643;-83
2023/03/12 09:09:24;;;;;;;;;;;;;;;4.36;46.87;96261.82;109089;1269;22609;-83
2023/03/12 09:11:54;;;;;;;;;;;;;;;3.51;48.80;96264.81;109084;1266;22498;-83
2023/03/12 09:14:24;;;;;;;;;;;;;;;3.50;49.94;96261.73;109033;1273;35657;-84
2023/03/12 09:16:54;;;;;;;;;;;;;;;3.44;50.26;96259.52;109086;1273;22546;-83
2023/03/12 09:19:24;;;;;;;;;;;;;;;3.16;50.79;96258.70;109107;1254;22850;-83
2023/03/12 09:21:54;;;;;;;;;;;;;;;2.94;51.87;96269.56;109106;1262;22445;-84
2023/03/12 09:24:24;;;;;;;;;;;;;;;3.16;52.69;96274.41;109051;1272;32992;-84
2023/03/12 09:26:54;;;;;;;;;;;;;;;3.25;52.19;96280.63;109113;1273;22506;-83
2023/03/12 09:29:25;;;;;;;;;;;;;;;2.90;52.40;96282.27;109075;1273;22499;-83
2023/03/12 09:31:55;;;;;;;;;;;;;;;2.46;52.68;96286.45;109141;1269;22512;-84
2023/03/12 09:34:26;;;;;;;;;;;;;;;2.23;53.76;96286.82;109043;1270;31703;-84
2023/03/12 09:36:56;;;;;;;;;;;;;;;1.95;53.94;96288.50;109087;1273;22558;-84
2023/03/12 09:39:25;;;;;;;;;;;;;;;1.72;55.06;96284.96;109112;1273;22557;-84
2023/03/12 09:41:55;;;;;;;;;;;;;;;2.08;55.90;96285.67;109081;1274;22488;-84
2023/03/12 09:44:28;;;;;;;;;;;;;;;2.42;55.53;96277.85;109049;1267;61207;-84
2023/03/12 09:47:01;;;;;;;;;;;;;;;2.65;54.95;96279.56;109075;1273;22536;-83
2023/03/12 09:49:34;;;;;;;;;;;;;;;2.93;55.24;96283.58;109088;1273;22593;-83
2023/03/12 09:52:08;;;;;;;;;;;;;;;3.02;54.13;96274.03;109188;1268;22508;-83
2023/03/12 09:54:41;;;;;;;;;;;;;;;2.91;54.11;96275.17;109072;1273;51582;-83
2023/03/12 09:57:12;;;;;;;;;;;;;;;2.96;55.17;96280.65;109115;1269;22659;-83
2023/03/12 09:59:42;;;;;;;;;;;;;;;3.17;54.24;96269.60;109150;1273;22569;-82
2023/03/12 10:02:23;;;;;;;;;;;;;;;3.03;54.33;96265.56;109093;1269;22461;-82
2023/03/12 10:04:55;;;;;;;;;;;;;;;2.93;54.35;96269.91;109063;1270;48421;-81
2023/03/12 10:07:27;;;;;;;;;;;;;;;2.86;54.13;96272.11;109085;1273;22494;-81
2023/03/12 10:10:09;;;;;;;;;;;;;;;2.82;54.32;96263.79;109069;1269;23096;-81
2023/03/12 10:12:47;;;;;;;;;;;;;;;2.82;54.03;96256.77;109073;1273;22531;-81
2023/03/12 10:15:24;;;;;;;;;;;;;;;2.70;53.68;96260.08;109090;1270;22704;-82
2023/03/12 10:18:00;;;;;;;;;;;;;;;2.70;54.34;96257.94;109061;1273;22457;-81
2023/03/12 10:20:40;;;;;;;;;;;;;;;2.87;55.08;96255.23;109056;1271;22512;-82
2023/03/12 10:23:13;;;;;;;;;;;;;;;3.08;54.36;96253.48;109101;1273;23850;-81
2023/03/12 10:25:46;;;;;;;;;;;;;;;3.08;54.81;96257.00;109042;1273;22621;-81
2023/03/12 10:28:17;;;;;;;;;;;;;;;3.12;54.35;96253.52;109054;1266;22495;-81
2023/03/12 10:30:50;;;;;;;;;;;;;;;3.07;53.81;96246.39;109086;1270;25220;-82
2023/03/12 10:33:21;;;;;;;;;;;;;;;3.06;53.96;96243.72;109087;1271;22515;-82
2023/03/12 10:35:52;;;;;;;;;;;;;;;3.14;55.46;96249.92;109055;1273;22848;-81
2023/03/12 10:38:26;;;;;;;;;;;;;;;3.27;55.30;96236.66;109115;1270;22454;-82
2023/03/12 10:40:56;;;;;;;;;;;;;;;3.39;55.76;96238.54;109125;1274;23767;-82
2023/03/12 10:43:27;;;;;;;;;;;;;;;3.28;54.36;96239.65;109057;1274;22543;-81
2023/03/12 10:46:03;;;;;;;;;;;;;;;3.12;54.23;96240.31;109197;1273;23397;-81
2023/03/12 10:48:32;;;;;;;;;;;;;;;3.15;55.58;96235.95;109089;1273;22521;-81
2023/03/12 10:51:04;;;;;;;;;;;;;;;3.23;55.72;96244.70;109139;1273;22518;-81
2023/03/12 10:53:35;;;;;;;;;;;;;;;3.26;55.33;96241.56;109078;1273;22534;-81
2023/03/12 10:56:06;;;;;;;;;;;;;;;3.26;55.65;96242.77;109067;1274;22800;-81
2023/03/12 10:58:38;;;;;;;;;;;;;;;3.25;55.47;96241.13;109195;1273;22444;-81
2023/03/12 11:01:17;;;;;;;;;;;;;;;3.17;55.09;96237.19;109197;1268;22472;-81
2023/03/12 11:03:46;;;;;;;;;;;;;;;3.16;56.17;96242.94;109109;1272;22537;-81
2023/03/12 11:06:22;;;;;;;;;;;;;;;3.22;55.75;96236.14;109113;1270;24213;-81
2023/03/12 11:09:04;;;;;;;;;;;;;;;3.09;55.23;96233.64;109100;1274;23215;-81
2023/03/12 11:11:35;;;;;;;;;;;;;;;3.14;55.17;96232.59;109085;1254;22583;-80
2023/03/12 11:14:08;;;;;;;;;;;;;;;3.21;55.79;96236.45;109119;1274;28029;-80
2023/03/12 11:16:38;;;;;;;;;;;;;;;3.24;55.02;96232.15;109104;1266;23857;-80
2023/03/12 11:19:12;;;;;;;;;;;;;;;3.24;55.08;96231.56;109102;1274;22496;-80
2023/03/12 11:21:55;;;;;;;;;;;;;;;3.40;55.62;96233.01;109185;1271;24242;-80
2023/03/12 11:24:24;;;;;;;;;;;;;;;3.32;54.15;96219.52;109083;1274;25573;-81
2023/03/12 11:26:57;;;;;;;;;;;;;;;3.21;53.78;96226.28;109098;1273;22523;-81
2023/03/12 11:29:30;;;;;;;;;;;;;;;3.14;53.37;96222.33;109074;1269;22516;-81
2023/03/12 11:32:03;;;;;;;;;;;;;;;3.13;54.20;96220.79;109105;1273;25384;-81
2023/03/12 11:34:34;;;;;;;;;;;;;;;3.31;55.36;96217.63;109077;1274;22496;-81
2023/03/12 11:37:08;;;;;;;;;;;;;;;3.40;53.19;96220.80;109116;1273;24604;-81
2023/03/12 11:39:47;;;;;;;;;;;;;;;3.36;52.88;96222.67;109107;1273;25278;-81
2023/03/12 11:42:22;;;;;;;;;;;;;;;3.42;54.29;96227.37;109108;1274;22446;-81
2023/03/12 11:44:58;;;;;;;;;;;;;;;3.64;53.73;96227.42;109041;1273;22489;-81
2023/03/12 11:47:42;;;;;;;;;;;;;;;3.51;51.86;96227.27;109095;1273;23706;-81
2023/03/12 11:50:20;;;;;;;;;;;;;;;3.46;52.14;96223.17;109092;1267;22489;-80
2023/03/12 11:52:56;;;;;;;;;;;;;;;3.45;51.79;96220.43;109126;1274;22495;-81
2023/03/12 11:55:38;;;;;;;;;;;;;;;3.44;52.54;96231.06;109075;1273;23680;-80
2023/03/12 11:58:36;;;;;;;;;;;;;;;3.53;52.49;96237.15;109130;1259;23048;-81
2023/03/12 12:01:09;;;;;;;;;;;;;;;3.74;52.47;96233.69;109075;1274;22454;-81
2023/03/12 12:03:55;;;;;;;;;;;;;;;3.83;52.38;96243.46;109113;1271;22511;-81
2023/03/12 12:06:27;;;;;;;;;;;;;;;3.99;52.63;96248.42;109120;1265;22518;-81
2023/03/12 12:09:16;;;;;;;;;;;;;;;3.97;51.35;96246.45;109141;1271;26042;-81
2023/03/12 12:11:55;;;;;;;;;;;;;;;3.92;51.73;96249.75;109105;1266;22604;-80
2023/03/12 12:14:32;;;;;;;;;;;;;;;3.88;50.25;96244.98;109062;1274;22480;-80
2023/03/12 12:17:08;;;;;;;;;;;;;;;3.79;50.69;96249.58;109122;1274;22530;-80
2023/03/12 12:19:44;;;;;;;;;;;;;;;3.73;50.37;96252.04;109096;1273;22498;-82
2023/03/12 12:22:23;;;;;;;;;;;;;;;3.64;49.68;96251.83;109045;1271;22533;-80
2023/03/12 12:25:02;;;;;;;;;;;;;;;3.62;50.50;96248.48;109091;1270;23247;-80
2023/03/12 12:27:37;;;;;;;;;;;;;;;3.69;50.01;96253.83;109070;1275;24311;-80
2023/03/12 12:30:10;;;;;;;;;;;;;;;3.59;49.69;96253.64;109120;1272;23668;-79
2023/03/12 12:32:49;;;;;;;;;;;;;;;3.54;50.10;96260.04;109094;1272;22582;-80
2023/03/12 12:35:25;;;;;;;;;;;;;;;3.58;49.99;96248.55;109069;1273;22556;-79
2023/03/12 12:37:58;;;;;;;;;;;;;;;3.65;49.84;96251.88;109102;1274;23723;-80
2023/03/12 12:40:31;;;;;;;;;;;;;;;3.88;50.32;96258.94;109125;1271;22498;-80
2023/03/12 12:43:04;;;;;;;;;;;;;;;4.01;49.95;96250.64;109100;1272;22464;-80
2023/03/12 12:45:35;;;;;;;;;;;;;;;4.06;48.93;96256.42;109027;1266;61953;-80
2023/03/12 12:48:07;;;;;;;;;;;;;;;4.01;48.82;96257.56;109079;1274;22503;-80
2023/03/12 12:50:39;;;;;;;;;;;;;;;4.09;48.99;96262.27;109010;1274;22641;-80
2023/03/12 12:53:14;;;;;;;;;;;;;;;4.27;48.74;96257.80;109101;1273;22482;-80
2023/03/12 12:55:48;;;;;;;;;;;;;;;4.31;48.14;96271.65;109064;1274;23671;-80
2023/03/12 12:58:21;;;;;;;;;;;;;;;4.27;47.89;96269.61;109118;1273;22451;-80
2023/03/12 13:00:53;;;;;;;;;;;;;;;4.30;48.00;96276.20;109137;1274;22623;-80
2023/03/12 13:03:24;;;;;;;;;;;;;;;4.35;48.62;96280.66;109058;1274;22492;-80